TPC178 PANC-CYXS
Flight info
| Callsign | TPC178 |
|---|---|
| Flight time | N/A |
| Altitude | 41000 |
| Route | YAK DCT CGL DCT MUXAT |
| Aircraft | C700/M-SBDGHM1RWXY/LB2 |
Departure
| Time | 2026-05-05 23:08 |
|---|---|
| Airport | Ted Stevens Anchorage International Airport (PANC) |
Arrival
| Time | N/A |
|---|---|
| Airport | Prince George (International) Airport (CYXS) |
| Time | Latitude | Longitude | Altitude | Speed | Heading |
|---|---|---|---|---|---|
| 2026-05-05 22:51 | 61.17240 | -149.94795 | 114 ft | 0 kts | 94° |
| 2026-05-05 23:06 | 61.17205 | -149.94768 | 113 ft | 11 kts | 216° |
| 2026-05-05 23:07 | 61.17132 | -149.94834 | 109 ft | 12 kts | 192° |
| 2026-05-05 23:07 | 61.17045 | -149.94853 | 113 ft | 12 kts | 197° |
| 2026-05-05 23:07 | 61.16984 | -149.94959 | 115 ft | 12 kts | 257° |
| 2026-05-05 23:07 | 61.16981 | -149.95327 | 117 ft | 66 kts | 271° |
| 2026-05-05 23:08 | 61.16980 | -149.96943 | 174 ft | 150 kts | 270° |
| 2026-05-05 23:08 | 61.16979 | -149.99492 | 584 ft | 205 kts | 270° |
| 2026-05-05 23:08 | 61.16961 | -150.02701 | 1744 ft | 223 kts | 266° |
| 2026-05-05 23:08 | 61.16845 | -150.05667 | 3794 ft | 207 kts | 253° |
| 2026-05-05 23:09 | 61.16027 | -150.08226 | 4869 ft | 226 kts | 216° |
| 2026-05-05 23:09 | 61.14597 | -150.09878 | 5958 ft | 247 kts | 192° |
| 2026-05-05 23:09 | 61.12907 | -150.09645 | 7304 ft | 252 kts | 160° |
| 2026-05-05 23:09 | 61.11464 | -150.07557 | 8822 ft | 263 kts | 129° |
| 2026-05-05 23:10 | 61.10710 | -150.04037 | 10361 ft | 276 kts | 106° |
| 2026-05-05 23:10 | 61.10268 | -149.99967 | 11585 ft | 302 kts | 102° |
| 2026-05-05 23:10 | 61.10004 | -149.97109 | 12705 ft | 305 kts | 102° |
| 2026-05-05 23:10 | 61.09565 | -149.92774 | 14371 ft | 312 kts | 104° |
| 2026-05-05 23:11 | 61.08886 | -149.86824 | 16155 ft | 328 kts | 104° |
| 2026-05-05 23:11 | 61.08531 | -149.83681 | 17014 ft | 335 kts | 104° |
| 2026-05-05 23:11 | 61.08015 | -149.78973 | 18149 ft | 345 kts | 104° |
| 2026-05-05 23:11 | 61.07479 | -149.74073 | 19139 ft | 351 kts | 104° |
| 2026-05-05 23:12 | 61.06926 | -149.69101 | 20095 ft | 357 kts | 104° |
| 2026-05-05 23:12 | 61.06359 | -149.64057 | 20972 ft | 362 kts | 104° |
| 2026-05-05 23:12 | 61.05793 | -149.59010 | 21841 ft | 368 kts | 104° |
| 2026-05-05 23:12 | 61.05212 | -149.53836 | 22738 ft | 371 kts | 106° |
| 2026-05-05 23:13 | 61.04620 | -149.48604 | 23559 ft | 376 kts | 106° |
| 2026-05-05 23:13 | 61.04020 | -149.43319 | 24282 ft | 381 kts | 106° |
| 2026-05-05 23:13 | 61.03409 | -149.37944 | 24989 ft | 387 kts | 106° |
| 2026-05-05 23:13 | 61.02794 | -149.32560 | 25684 ft | 392 kts | 106° |
| 2026-05-05 23:14 | 61.02160 | -149.27040 | 26423 ft | 398 kts | 106° |
| 2026-05-05 23:14 | 61.01514 | -149.21434 | 27124 ft | 404 kts | 106° |
| 2026-05-05 23:14 | 61.00858 | -149.15752 | 27858 ft | 409 kts | 106° |
| 2026-05-05 23:14 | 61.00191 | -149.10000 | 28560 ft | 415 kts | 106° |
| 2026-05-05 23:15 | 60.99510 | -149.04169 | 29314 ft | 420 kts | 105° |
| 2026-05-05 23:15 | 60.98825 | -148.98330 | 29976 ft | 427 kts | 106° |
| 2026-05-05 23:15 | 60.98121 | -148.92326 | 30554 ft | 433 kts | 106° |
| 2026-05-05 23:15 | 60.97407 | -148.86270 | 31143 ft | 438 kts | 106° |
| 2026-05-05 23:16 | 60.96677 | -148.80130 | 31732 ft | 443 kts | 107° |
| 2026-05-05 23:16 | 60.95936 | -148.73913 | 32316 ft | 449 kts | 107° |
| 2026-05-05 23:16 | 60.95189 | -148.67703 | 32882 ft | 455 kts | 107° |
| 2026-05-05 23:16 | 60.94406 | -148.61351 | 33439 ft | 460 kts | 107° |
| 2026-05-05 23:17 | 60.93615 | -148.54922 | 33963 ft | 466 kts | 107° |
| 2026-05-05 23:17 | 60.92821 | -148.48397 | 34424 ft | 470 kts | 107° |
| 2026-05-05 23:17 | 60.92018 | -148.41836 | 34914 ft | 475 kts | 107° |
| 2026-05-05 23:17 | 60.91198 | -148.35233 | 35359 ft | 479 kts | 107° |
| 2026-05-05 23:18 | 60.90368 | -148.28573 | 35935 ft | 480 kts | 107° |
| 2026-05-05 23:18 | 60.89552 | -148.22021 | 36546 ft | 479 kts | 107° |
| 2026-05-05 23:18 | 60.88720 | -148.15372 | 37079 ft | 479 kts | 107° |
| 2026-05-05 23:18 | 60.87883 | -148.08739 | 37592 ft | 479 kts | 107° |
| 2026-05-05 23:19 | 60.87041 | -148.02092 | 38099 ft | 479 kts | 107° |
| 2026-05-05 23:19 | 60.86210 | -147.95549 | 38576 ft | 479 kts | 107° |
| 2026-05-05 23:19 | 60.85367 | -147.88926 | 38948 ft | 479 kts | 107° |
| 2026-05-05 23:19 | 60.84520 | -147.82328 | 39321 ft | 479 kts | 108° |
| 2026-05-05 23:20 | 60.83669 | -147.75728 | 39697 ft | 478 kts | 108° |
| 2026-05-05 23:20 | 60.82814 | -147.69115 | 40039 ft | 478 kts | 108° |
| 2026-05-05 23:20 | 60.81960 | -147.62527 | 40375 ft | 478 kts | 108° |
| 2026-05-05 23:20 | 60.81103 | -147.55957 | 40703 ft | 478 kts | 108° |
| 2026-05-05 23:21 | 60.80238 | -147.49362 | 40856 ft | 481 kts | 108° |
| 2026-05-05 23:21 | 60.79359 | -147.42692 | 40861 ft | 489 kts | 108° |
| 2026-05-05 23:21 | 60.77573 | -147.29182 | 40876 ft | 495 kts | 108° |
| 2026-05-05 23:22 | 60.75763 | -147.15626 | 40874 ft | 491 kts | 108° |
| 2026-05-05 23:22 | 60.73956 | -147.02218 | 40865 ft | 486 kts | 108° |
| 2026-05-05 23:23 | 60.72158 | -146.88981 | 40867 ft | 487 kts | 108° |
| 2026-05-05 23:23 | 60.70324 | -146.75598 | 40886 ft | 489 kts | 109° |
| 2026-05-05 23:24 | 60.68479 | -146.62241 | 40890 ft | 492 kts | 109° |
| 2026-05-05 23:24 | 60.66608 | -146.48810 | 40886 ft | 492 kts | 109° |
| 2026-05-05 23:25 | 60.64722 | -146.35384 | 40886 ft | 490 kts | 109° |
| 2026-05-05 23:25 | 60.62845 | -146.22127 | 40882 ft | 489 kts | 109° |
| 2026-05-05 23:26 | 60.60950 | -146.08850 | 40879 ft | 487 kts | 109° |
| 2026-05-05 23:26 | 60.59040 | -145.95595 | 40880 ft | 487 kts | 109° |
| 2026-05-05 23:27 | 60.57128 | -145.82407 | 40886 ft | 488 kts | 110° |
| 2026-05-05 23:27 | 60.55186 | -145.69137 | 40895 ft | 489 kts | 110° |
| 2026-05-05 23:28 | 60.53242 | -145.55950 | 40897 ft | 491 kts | 110° |
| 2026-05-05 23:28 | 60.51270 | -145.42677 | 40891 ft | 489 kts | 110° |
| 2026-05-05 23:29 | 60.49287 | -145.29438 | 40882 ft | 489 kts | 110° |
| 2026-05-05 23:29 | 60.47307 | -145.16322 | 40889 ft | 488 kts | 110° |
| 2026-05-05 23:30 | 60.45310 | -145.03187 | 40890 ft | 487 kts | 111° |
| 2026-05-05 23:30 | 60.43313 | -144.90162 | 40891 ft | 486 kts | 111° |
| 2026-05-05 23:31 | 60.41291 | -144.77069 | 40888 ft | 486 kts | 111° |
| 2026-05-05 23:31 | 60.39269 | -144.64079 | 40890 ft | 488 kts | 111° |
| 2026-05-05 23:32 | 60.37211 | -144.50948 | 40895 ft | 490 kts | 111° |
| 2026-05-05 23:32 | 60.35134 | -144.37803 | 40903 ft | 490 kts | 111° |
| 2026-05-05 23:33 | 60.33060 | -144.24772 | 40901 ft | 489 kts | 111° |
| 2026-05-05 23:33 | 60.30969 | -144.11731 | 40897 ft | 486 kts | 111° |
| 2026-05-05 23:34 | 60.28883 | -143.98817 | 40896 ft | 485 kts | 112° |
| 2026-05-05 23:34 | 60.26774 | -143.85858 | 40905 ft | 487 kts | 112° |
| 2026-05-05 23:35 | 60.24646 | -143.72871 | 40906 ft | 489 kts | 112° |
| 2026-05-05 23:35 | 60.22496 | -143.59850 | 40916 ft | 491 kts | 112° |
| 2026-05-05 23:36 | 60.20328 | -143.46806 | 40919 ft | 491 kts | 112° |
| 2026-05-05 23:36 | 60.18167 | -143.33902 | 40920 ft | 489 kts | 112° |
| 2026-05-05 23:37 | 60.15984 | -143.20964 | 40917 ft | 487 kts | 112° |
| 2026-05-05 23:37 | 60.13796 | -143.08079 | 40920 ft | 486 kts | 112° |
| 2026-05-05 23:38 | 60.11615 | -142.95331 | 40928 ft | 485 kts | 112° |
| 2026-05-05 23:38 | 60.09402 | -142.82486 | 40931 ft | 487 kts | 113° |
| 2026-05-05 23:39 | 60.07170 | -142.69618 | 40939 ft | 489 kts | 113° |
| 2026-05-05 23:39 | 60.04926 | -142.56768 | 40945 ft | 491 kts | 113° |
| 2026-05-05 23:40 | 60.02661 | -142.43892 | 40944 ft | 489 kts | 113° |
| 2026-05-05 23:40 | 60.00391 | -142.31074 | 40945 ft | 488 kts | 113° |
| 2026-05-05 23:41 | 59.98130 | -142.18390 | 40943 ft | 486 kts | 114° |
| 2026-05-05 23:41 | 59.95842 | -142.05650 | 40948 ft | 487 kts | 114° |
| 2026-05-05 23:42 | 59.93554 | -141.92981 | 40960 ft | 488 kts | 114° |
| 2026-05-05 23:42 | 59.91228 | -141.80201 | 40969 ft | 488 kts | 114° |
| 2026-05-05 23:43 | 59.88908 | -141.67527 | 40974 ft | 489 kts | 114° |
| 2026-05-05 23:43 | 59.86559 | -141.54792 | 40983 ft | 489 kts | 114° |
| 2026-05-05 23:44 | 59.84212 | -141.42148 | 40980 ft | 490 kts | 114° |
| 2026-05-05 23:44 | 59.81836 | -141.29424 | 40982 ft | 490 kts | 115° |
| 2026-05-05 23:45 | 59.79443 | -141.16698 | 40983 ft | 491 kts | 115° |
| 2026-05-05 23:45 | 59.77054 | -141.04074 | 40993 ft | 490 kts | 115° |
| 2026-05-05 23:46 | 59.74650 | -140.91455 | 40985 ft | 486 kts | 115° |
| 2026-05-05 23:46 | 59.72261 | -140.78999 | 40990 ft | 484 kts | 115° |
| 2026-05-05 23:47 | 59.69844 | -140.66478 | 40990 ft | 486 kts | 115° |
| 2026-05-05 23:47 | 59.67425 | -140.54018 | 40996 ft | 488 kts | 115° |
| 2026-05-05 23:48 | 59.64966 | -140.41438 | 40996 ft | 490 kts | 115° |
| 2026-05-05 23:48 | 59.62492 | -140.28853 | 40992 ft | 489 kts | 116° |
| 2026-05-05 23:49 | 59.60026 | -140.16394 | 41004 ft | 489 kts | 116° |
| 2026-05-05 23:49 | 59.57540 | -140.03914 | 41005 ft | 488 kts | 116° |
| 2026-05-05 23:50 | 59.55046 | -139.91468 | 41005 ft | 488 kts | 116° |
| 2026-05-05 23:50 | 59.52551 | -139.79097 | 41011 ft | 487 kts | 116° |
| 2026-05-05 23:51 | 59.50039 | -139.66712 | 41000 ft | 486 kts | 116° |
| 2026-05-05 23:51 | 59.47528 | -139.54416 | 41015 ft | 485 kts | 116° |
| 2026-05-05 23:52 | 59.44995 | -139.42082 | 41016 ft | 485 kts | 116° |
| 2026-05-05 23:52 | 59.42469 | -139.29858 | 41023 ft | 485 kts | 117° |
| 2026-05-05 23:53 | 59.39924 | -139.17615 | 41027 ft | 484 kts | 117° |
| 2026-05-05 23:53 | 59.37358 | -139.05348 | 41033 ft | 486 kts | 117° |
| 2026-05-05 23:54 | 59.34782 | -138.93103 | 41043 ft | 489 kts | 117° |
| 2026-05-05 23:54 | 59.32169 | -138.80751 | 41041 ft | 489 kts | 117° |
| 2026-05-05 23:55 | 59.29557 | -138.68484 | 41043 ft | 486 kts | 117° |
| 2026-05-05 23:55 | 59.26962 | -138.56370 | 41006 ft | 483 kts | 117° |
| 2026-05-05 23:56 | 59.24361 | -138.44301 | 41054 ft | 484 kts | 117° |
| 2026-05-05 23:56 | 59.21719 | -138.32106 | 41057 ft | 487 kts | 117° |
| 2026-05-05 23:57 | 59.19071 | -138.19955 | 41062 ft | 489 kts | 117° |
| 2026-05-05 23:57 | 59.16397 | -138.07757 | 41060 ft | 487 kts | 118° |
| 2026-05-05 23:58 | 59.13732 | -137.95671 | 41030 ft | 486 kts | 118° |
| 2026-05-05 23:58 | 59.11501 | -137.85612 | 41050 ft | 486 kts | 118° |
| 2026-05-05 23:59 | 59.08795 | -137.73473 | 41054 ft | 487 kts | 118° |
| 2026-05-05 23:59 | 59.06095 | -137.61422 | 41053 ft | 487 kts | 118° |
| 2026-05-06 00:00 | 59.03386 | -137.49403 | 41037 ft | 488 kts | 118° |
| 2026-05-06 00:00 | 59.00647 | -137.37324 | 41037 ft | 489 kts | 118° |
| 2026-05-06 00:01 | 58.97894 | -137.25246 | 41033 ft | 488 kts | 118° |
| 2026-05-06 00:01 | 58.95144 | -137.13257 | 41032 ft | 487 kts | 118° |
| 2026-05-06 00:02 | 58.92395 | -137.01332 | 41036 ft | 486 kts | 119° |
| 2026-05-06 00:02 | 58.89628 | -136.89396 | 41037 ft | 485 kts | 119° |
| 2026-05-06 00:03 | 58.86861 | -136.77532 | 41024 ft | 483 kts | 119° |
| 2026-05-06 00:03 | 58.84093 | -136.65730 | 41030 ft | 486 kts | 119° |
| 2026-05-06 00:04 | 58.81280 | -136.53794 | 41031 ft | 488 kts | 119° |
| 2026-05-06 00:04 | 58.78468 | -136.41930 | 41033 ft | 487 kts | 120° |
| 2026-05-06 00:05 | 58.74213 | -136.24103 | 41028 ft | 486 kts | 120° |
| 2026-05-06 00:06 | 58.71389 | -136.12351 | 41028 ft | 485 kts | 120° |
| 2026-05-06 00:06 | 58.68557 | -136.00632 | 41032 ft | 484 kts | 120° |
| 2026-05-06 00:07 | 58.65704 | -135.88887 | 41042 ft | 484 kts | 120° |
| 2026-05-06 00:07 | 58.62840 | -135.77159 | 41051 ft | 482 kts | 120° |
| 2026-05-06 00:08 | 58.59985 | -135.65532 | 41050 ft | 484 kts | 120° |
| 2026-05-06 00:08 | 58.57105 | -135.53867 | 41056 ft | 484 kts | 120° |
| 2026-05-06 00:09 | 58.54204 | -135.42176 | 41057 ft | 486 kts | 120° |
| 2026-05-06 00:09 | 58.51301 | -135.30540 | 41051 ft | 487 kts | 121° |
| 2026-05-06 00:10 | 58.48368 | -135.18846 | 41052 ft | 486 kts | 121° |
| 2026-05-06 00:10 | 58.45438 | -135.07218 | 41015 ft | 484 kts | 121° |
| 2026-05-06 00:11 | 58.42526 | -134.95733 | 41036 ft | 483 kts | 121° |
| 2026-05-06 00:11 | 58.39588 | -134.84196 | 41037 ft | 482 kts | 121° |
| 2026-05-06 00:12 | 58.36661 | -134.72775 | 41051 ft | 482 kts | 121° |
| 2026-05-06 00:12 | 58.34471 | -134.60514 | 41069 ft | 490 kts | 111° |
| 2026-05-06 00:13 | 58.32518 | -134.48076 | 41042 ft | 490 kts | 112° |
| 2026-05-06 00:13 | 58.30565 | -134.35690 | 41056 ft | 492 kts | 111° |
| 2026-05-06 00:14 | 58.28601 | -134.23323 | 41052 ft | 490 kts | 112° |
| 2026-05-06 00:14 | 58.26615 | -134.10924 | 41046 ft | 489 kts | 112° |
| 2026-05-06 00:15 | 58.24634 | -133.98633 | 41040 ft | 489 kts | 112° |
| 2026-05-06 00:15 | 58.22632 | -133.86304 | 41051 ft | 487 kts | 112° |
| 2026-05-06 00:16 | 58.20627 | -133.74002 | 41039 ft | 487 kts | 112° |
| 2026-05-06 00:16 | 58.18599 | -133.61759 | 41062 ft | 488 kts | 112° |
| 2026-05-06 00:17 | 58.16569 | -133.49469 | 41058 ft | 491 kts | 112° |
| 2026-05-06 00:17 | 58.14506 | -133.37115 | 41067 ft | 491 kts | 112° |
| 2026-05-06 00:18 | 58.12438 | -133.24827 | 41063 ft | 491 kts | 113° |
| 2026-05-06 00:18 | 58.10370 | -133.12579 | 41057 ft | 489 kts | 113° |
| 2026-05-06 00:19 | 58.08279 | -133.00336 | 41051 ft | 488 kts | 113° |
| 2026-05-06 00:19 | 58.06179 | -132.88076 | 41045 ft | 491 kts | 114° |
| 2026-05-06 00:20 | 58.04046 | -132.75762 | 41035 ft | 493 kts | 114° |
| 2026-05-06 00:20 | 58.01926 | -132.63531 | 41012 ft | 492 kts | 114° |
| 2026-05-06 00:21 | 57.99784 | -132.51307 | 40995 ft | 488 kts | 114° |
| 2026-05-06 00:21 | 57.97635 | -132.39130 | 40975 ft | 490 kts | 114° |
| 2026-05-06 00:22 | 57.95482 | -132.26982 | 40949 ft | 490 kts | 114° |
| 2026-05-06 00:22 | 57.93305 | -132.14795 | 40928 ft | 490 kts | 114° |
| 2026-05-06 00:23 | 57.91134 | -132.02695 | 40924 ft | 491 kts | 115° |
| 2026-05-06 00:23 | 57.88923 | -131.90518 | 40891 ft | 492 kts | 115° |
| 2026-05-06 00:24 | 57.86714 | -131.78344 | 40890 ft | 490 kts | 115° |
| 2026-05-06 00:24 | 57.84500 | -131.66292 | 40898 ft | 490 kts | 115° |
| 2026-05-06 00:25 | 57.82270 | -131.54189 | 40901 ft | 489 kts | 115° |
| 2026-05-06 00:25 | 57.80023 | -131.42092 | 40891 ft | 490 kts | 115° |
| 2026-05-06 00:26 | 57.77780 | -131.30080 | 40877 ft | 491 kts | 115° |
| 2026-05-06 00:26 | 57.75510 | -131.18010 | 40876 ft | 490 kts | 116° |
| 2026-05-06 00:27 | 57.73235 | -131.05963 | 40875 ft | 489 kts | 116° |
| 2026-05-06 00:27 | 57.70948 | -130.93988 | 40899 ft | 491 kts | 116° |
| 2026-05-06 00:28 | 57.68659 | -130.82001 | 40900 ft | 493 kts | 116° |
| 2026-05-06 00:28 | 57.66331 | -130.69949 | 40883 ft | 494 kts | 116° |
| 2026-05-06 00:29 | 57.63733 | -130.58136 | 40882 ft | 485 kts | 125° |
| 2026-05-06 00:29 | 57.59950 | -130.47970 | 40898 ft | 476 kts | 134° |
| 2026-05-06 00:30 | 57.55963 | -130.38079 | 40898 ft | 476 kts | 134° |
| 2026-05-06 00:30 | 57.51986 | -130.28282 | 40903 ft | 476 kts | 134° |
| 2026-05-06 00:31 | 57.47981 | -130.18448 | 40893 ft | 476 kts | 134° |
| 2026-05-06 00:31 | 57.43963 | -130.08620 | 40898 ft | 478 kts | 134° |
| 2026-05-06 00:32 | 57.39954 | -129.98858 | 40893 ft | 474 kts | 134° |
| 2026-05-06 00:32 | 57.35962 | -129.89172 | 40898 ft | 472 kts | 134° |
| 2026-05-06 00:33 | 57.31933 | -129.79449 | 40895 ft | 476 kts | 134° |
| 2026-05-06 00:33 | 57.27879 | -129.69685 | 40895 ft | 479 kts | 134° |
| 2026-05-06 00:34 | 57.23827 | -129.59984 | 40900 ft | 481 kts | 134° |
| 2026-05-06 00:34 | 57.19729 | -129.50195 | 40897 ft | 481 kts | 134° |
| 2026-05-06 00:35 | 57.15628 | -129.40453 | 40891 ft | 479 kts | 134° |
| 2026-05-06 00:35 | 57.11567 | -129.30837 | 40875 ft | 476 kts | 134° |
| 2026-05-06 00:36 | 57.07463 | -129.21168 | 40896 ft | 480 kts | 134° |
| 2026-05-06 00:36 | 57.03330 | -129.11458 | 40901 ft | 483 kts | 134° |
| 2026-05-06 00:37 | 56.99213 | -129.01826 | 40885 ft | 481 kts | 135° |
| 2026-05-06 00:37 | 56.95079 | -128.92200 | 40876 ft | 477 kts | 135° |
| 2026-05-06 00:38 | 56.90982 | -128.82696 | 40869 ft | 479 kts | 135° |
| 2026-05-06 00:38 | 56.86810 | -128.73057 | 40876 ft | 484 kts | 135° |
| 2026-05-06 00:39 | 56.82648 | -128.63469 | 40864 ft | 483 kts | 135° |
| 2026-05-06 00:39 | 56.78463 | -128.53878 | 40868 ft | 481 kts | 135° |
| 2026-05-06 00:40 | 56.74314 | -128.44402 | 40855 ft | 478 kts | 135° |
| 2026-05-06 00:40 | 56.70842 | -128.36507 | 40881 ft | 482 kts | 135° |
| 2026-05-06 00:41 | 56.66628 | -128.26957 | 40876 ft | 486 kts | 135° |
| 2026-05-06 00:41 | 56.62395 | -128.17387 | 40883 ft | 483 kts | 135° |
| 2026-05-06 00:42 | 56.58198 | -128.07953 | 40882 ft | 481 kts | 135° |
| 2026-05-06 00:42 | 56.53981 | -127.98508 | 40876 ft | 481 kts | 135° |
| 2026-05-06 00:43 | 56.49745 | -127.89057 | 40870 ft | 485 kts | 135° |
| 2026-05-06 00:43 | 56.45456 | -127.79522 | 40874 ft | 490 kts | 135° |
| 2026-05-06 00:44 | 56.41156 | -127.69996 | 40885 ft | 490 kts | 135° |
| 2026-05-06 00:44 | 56.36834 | -127.60468 | 40886 ft | 488 kts | 135° |
| 2026-05-06 00:45 | 56.32561 | -127.51081 | 40877 ft | 485 kts | 135° |
| 2026-05-06 00:45 | 56.28279 | -127.41717 | 40888 ft | 487 kts | 135° |
| 2026-05-06 00:46 | 56.23940 | -127.32260 | 40899 ft | 491 kts | 135° |
| 2026-05-06 00:46 | 56.19582 | -127.22795 | 40893 ft | 490 kts | 135° |
| 2026-05-06 00:47 | 56.15242 | -127.13409 | 40883 ft | 489 kts | 135° |